Time;durP1;ratioP1;P1;durP2;ratioP2;P2;SDS_P1;SDS_P2;PMS_P1;PMS_P2;Temp;Humidity;BMP_temperature;BMP_pressure;BME280_temperature;BME280_humidity;BME280_pressure;Samples;Min_cycle;Max_cycle;Signal;HPM_P1;HPM_P2
2022/06/19 00:00:44;;;;;;;11.43;2.40;;;15.40;99.90;;;;;;5039765;28;20124;-59
2022/06/19 00:03:19;;;;;;;10.50;2.22;;;15.30;99.90;;;;;;5038306;28;20045;-60
2022/06/19 00:05:45;;;;;;;7.90;1.50;;;15.30;99.90;;;;;;5039315;28;20054;-60
2022/06/19 00:08:10;;;;;;;8.93;1.73;;;15.40;99.90;;;;;;5038181;28;20056;-59
2022/06/19 00:10:36;;;;;;;9.75;1.40;;;15.40;99.90;;;;;;5038731;28;20056;-60
2022/06/19 00:13:02;;;;;;;9.60;2.13;;;15.30;99.90;;;;;;5038443;28;20033;-60
2022/06/19 00:15:28;;;;;;;8.20;1.80;;;15.30;99.90;;;;;;5038238;28;20120;-59
2022/06/19 00:17:54;;;;;;;9.15;1.63;;;15.30;99.90;;;;;;5040072;28;20072;-60
2022/06/19 00:20:20;;;;;;;9.38;2.13;;;15.40;99.90;;;;;;5038451;28;20034;-60
2022/06/19 00:22:46;;;;;;;10.60;2.00;;;15.30;99.90;;;;;;5025238;28;20081;-60
2022/06/19 00:25:12;;;;;;;7.35;1.45;;;15.20;99.90;;;;;;5019435;28;20563;-59
2022/06/19 00:27:39;;;;;;;9.35;1.60;;;15.20;99.90;;;;;;5018595;28;20033;-59
2022/06/19 00:30:08;;;;;;;11.68;1.90;;;15.30;99.90;;;;;;5020004;28;20045;-59
2022/06/19 00:32:34;;;;;;;12.48;2.10;;;15.20;99.90;;;;;;5018366;28;20517;-60
2022/06/19 00:34:59;;;;;;;10.77;2.03;;;15.30;99.90;;;;;;5019757;28;20046;-60
2022/06/19 00:37:25;;;;;;;14.57;2.30;;;15.30;99.90;;;;;;5018502;28;20093;-59
2022/06/19 00:39:51;;;;;;;12.07;1.90;;;15.40;99.90;;;;;;5019442;28;20050;-59
2022/06/19 00:42:17;;;;;;;12.50;2.13;;;15.30;99.90;;;;;;5017667;28;20053;-59
2022/06/19 00:44:43;;;;;;;10.93;2.00;;;15.20;99.90;;;;;;5018426;28;20618;-59
2022/06/19 00:47:24;;;;;;;12.50;1.90;;;15.30;99.90;;;;;;5019482;28;20065;-59
2022/06/19 00:50:17;;;;;;;8.32;1.80;;;15.10;99.90;;;;;;5018153;28;20066;-59
2022/06/19 00:52:43;;;;;;;12.50;1.88;;;15.30;99.90;;;;;;5018706;28;20056;-59
2022/06/19 00:55:13;;;;;;;11.98;1.92;;;15.20;99.90;;;;;;5019125;28;20041;-59
2022/06/19 00:57:42;;;;;;;14.57;2.35;;;15.30;99.90;;;;;;5018424;28;20073;-60
2022/06/19 01:00:11;;;;;;;12.05;2.60;;;15.20;99.90;;;;;;5019435;28;20050;-57
2022/06/19 01:02:40;;;;;;;12.43;2.20;;;15.10;99.90;;;;;;5018266;28;20046;-59
2022/06/19 01:05:06;;;;;;;14.63;2.50;;;15.00;99.90;;;;;;5019383;28;20062;-60
2022/06/19 01:07:32;;;;;;;13.52;2.05;;;15.10;99.90;;;;;;5018319;28;20052;-59
2022/06/19 01:09:58;;;;;;;11.18;2.17;;;15.00;99.90;;;;;;5019013;28;20104;-59
2022/06/19 01:12:25;;;;;;;12.27;2.50;;;14.90;99.90;;;;;;5019308;28;20042;-59
2022/06/19 01:14:58;;;;;;;12.55;2.38;;;14.90;99.90;;;;;;5021891;28;20037;-59
2022/06/19 01:17:24;;;;;;;13.00;2.65;;;14.90;99.90;;;;;;5023501;28;20442;-60
2022/06/19 01:19:50;;;;;;;12.95;2.40;;;14.80;99.90;;;;;;5021778;28;20526;-59
2022/06/19 01:22:46;;;;;;;13.85;2.53;;;14.90;99.90;;;;;;5033125;28;20042;-59
2022/06/19 01:25:18;;;;;;;14.10;2.80;;;14.90;99.90;;;;;;5042449;28;20041;-59
2022/06/19 01:30:38;;;;;;;12.43;2.75;;;14.90;99.90;;;;;;5043082;28;20056;-59
2022/06/19 01:33:08;;;;;;;13.85;2.47;;;15.00;99.90;;;;;;5041557;28;20076;-59
2022/06/19 01:35:36;;;;;;;14.02;2.42;;;15.10;99.90;;;;;;5042619;28;20472;-60
2022/06/19 01:38:12;;;;;;;15.10;3.10;;;15.10;99.90;;;;;;5042158;28;20049;-59
2022/06/19 01:40:41;;;;;;;12.02;2.05;;;15.30;99.90;;;;;;5041420;28;20037;-57
2022/06/19 01:43:07;;;;;;;19.83;2.90;;;15.20;99.90;;;;;;5042655;28;20117;-59
2022/06/19 01:45:32;;;;;;;15.60;3.67;;;15.20;99.90;;;;;;5039704;28;20065;-59
2022/06/19 01:47:59;;;;;;;14.07;2.47;;;15.30;99.90;;;;;;5042409;28;20045;-59
2022/06/19 01:50:27;;;;;;;15.10;2.40;;;15.30;99.90;;;;;;5041479;28;20056;-59
2022/06/19 01:53:06;;;;;;;17.27;2.65;;;15.20;99.90;;;;;;5041970;28;20071;-59
2022/06/19 01:55:32;;;;;;;12.43;2.20;;;15.10;99.90;;;;;;5042411;28;20046;-59
2022/06/19 01:58:00;;;;;;;15.07;2.17;;;15.10;99.90;;;;;;5041206;28;20037;-59
2022/06/19 02:00:30;;;;;;;14.63;2.72;;;15.20;99.90;;;;;;5042121;28;20133;-60
2022/06/19 02:03:05;;;;;;;12.38;2.08;;;15.20;99.90;;;;;;5039780;28;20072;-60
2022/06/19 02:05:32;;;;;;;17.52;3.30;;;15.20;99.90;;;;;;5041533;28;20099;-59
2022/06/19 02:07:58;;;;;;;15.50;3.28;;;15.20;99.90;;;;;;5041577;28;20121;-59
2022/06/19 02:10:24;;;;;;;11.65;2.20;;;15.20;99.90;;;;;;5041215;28;20512;-60
2022/06/19 02:12:50;;;;;;;15.48;2.42;;;15.20;99.90;;;;;;5040511;28;20057;-59
2022/06/19 02:15:16;;;;;;;18.00;3.00;;;15.20;99.90;;;;;;5040555;28;20068;-59
2022/06/19 02:17:49;;;;;;;14.45;2.80;;;15.20;99.90;;;;;;5042028;28;20030;-59
2022/06/19 02:20:15;;;;;;;13.45;3.08;;;15.10;99.90;;;;;;5040608;28;20030;-59
2022/06/19 02:22:41;;;;;;;17.02;2.80;;;15.10;99.90;;;;;;5028174;28;20557;-60
2022/06/19 02:25:08;;;;;;;13.02;2.40;;;15.00;99.90;;;;;;5020396;28;20084;-59
2022/06/19 02:27:34;;;;;;;15.25;2.70;;;15.10;99.90;;;;;;5020698;28;20084;-60
2022/06/19 02:30:02;;;;;;;13.93;2.38;;;14.90;99.90;;;;;;5022025;28;20046;-60
2022/06/19 02:32:34;;;;;;;24.42;3.35;;;14.90;99.90;;;;;;5020652;28;20049;-59
2022/06/19 02:35:00;;;;;;;18.08;2.65;;;15.00;99.90;;;;;;5021933;28;20108;-60
2022/06/19 02:37:29;;;;;;;11.55;2.70;;;15.10;99.90;;;;;;5020627;28;20049;-59
2022/06/19 02:40:09;;;;;;;13.40;2.13;;;15.00;99.90;;;;;;5021123;28;20104;-60
2022/06/19 02:42:45;;;;;;;15.00;2.42;;;14.90;99.90;;;;;;5021687;28;20041;-60
2022/06/19 02:45:23;;;;;;;15.73;2.47;;;14.90;99.90;;;;;;5019939;28;20388;-59
2022/06/19 02:47:51;;;;;;;14.63;3.15;;;15.00;99.90;;;;;;5021796;28;20049;-60
2022/06/19 02:50:21;;;;;;;14.20;2.40;;;15.00;99.90;;;;;;5020468;28;20498;-60
2022/06/19 02:52:48;;;;;;;15.50;2.70;;;15.00;99.90;;;;;;5020956;28;20516;-60
2022/06/19 02:55:14;;;;;;;13.00;2.20;;;14.90;99.90;;;;;;5021065;28;20042;-60
2022/06/19 02:57:40;;;;;;;14.77;2.40;;;15.00;99.90;;;;;;5019137;28;20050;-60
2022/06/19 03:00:08;;;;;;;10.57;2.22;;;15.00;99.90;;;;;;5021368;28;20050;-59
2022/06/19 03:02:34;;;;;;;11.95;2.30;;;14.90;99.90;;;;;;5020157;28;20128;-60
2022/06/19 03:05:04;;;;;;;9.50;1.92;;;14.90;99.90;;;;;;5020962;28;20054;-60
2022/06/19 03:07:29;;;;;;;14.10;2.63;;;14.70;99.90;;;;;;5018989;28;20076;-59
2022/06/19 03:09:55;;;;;;;15.77;3.08;;;14.90;99.90;;;;;;5020677;28;20041;-60
2022/06/19 03:12:22;;;;;;;16.08;2.70;;;14.80;99.90;;;;;;5020742;28;20045;-60
2022/06/19 03:14:48;;;;;;;12.20;2.20;;;14.90;99.90;;;;;;5019736;28;20033;-61
2022/06/19 03:17:16;;;;;;;15.45;2.50;;;14.80;99.90;;;;;;5021174;28;20042;-59
2022/06/19 03:19:42;;;;;;;12.32;2.72;;;14.80;99.90;;;;;;5019752;28;20411;-60
2022/06/19 03:22:09;;;;;;;12.70;2.40;;;14.80;99.90;;;;;;5028676;28;20064;-60
2022/06/19 03:24:34;;;;;;;14.02;2.38;;;14.80;99.90;;;;;;5039598;28;20046;-58
2022/06/19 03:27:00;;;;;;;15.85;2.63;;;14.70;99.90;;;;;;5040542;28;20067;-63
2022/06/19 03:29:26;;;;;;;12.07;2.15;;;14.90;99.90;;;;;;5040265;28;20909;-61
2022/06/19 03:31:51;;;;;;;15.50;2.92;;;14.80;99.90;;;;;;5039392;28;20049;-60
2022/06/19 03:34:17;;;;;;;17.33;2.70;;;14.80;99.90;;;;;;5040796;28;20625;-59
2022/06/19 03:36:43;;;;;;;16.80;2.75;;;14.80;99.90;;;;;;5039077;28;20037;-57
2022/06/19 03:39:09;;;;;;;16.95;2.83;;;14.60;99.90;;;;;;5040729;28;20037;-60
2022/06/19 03:41:35;;;;;;;17.13;3.10;;;14.30;99.90;;;;;;5038969;28;20045;-57
2022/06/19 03:44:01;;;;;;;20.75;3.40;;;14.40;99.90;;;;;;5039865;28;20045;-57
2022/06/19 03:46:27;;;;;;;20.60;2.72;;;14.20;99.90;;;;;;5039689;28;20675;-58
2022/06/19 03:48:52;;;;;;;16.70;2.38;;;14.10;99.90;;;;;;5039519;28;20091;-60
2022/06/19 03:51:22;;;;;;;15.65;2.78;;;14.00;99.90;;;;;;5040338;28;20604;-60
2022/06/19 03:53:50;;;;;;;22.80;3.40;;;13.90;99.90;;;;;;5039027;28;20077;-59
2022/06/19 03:56:19;;;;;;;13.98;2.40;;;13.90;99.90;;;;;;5040155;28;20085;-59
2022/06/19 03:58:47;;;;;;;13.57;2.60;;;13.80;99.90;;;;;;5038990;28;20045;-59
2022/06/19 04:01:14;;;;;;;14.25;3.03;;;13.90;99.90;;;;;;5039460;28;20049;-59
2022/06/19 04:03:40;;;;;;;16.98;2.78;;;13.70;99.90;;;;;;5039471;28;20448;-59
2022/06/19 04:06:08;;;;;;;13.48;2.72;;;13.60;99.90;;;;;;5038814;28;20560;-59
2022/06/19 04:08:34;;;;;;;13.70;2.90;;;13.50;99.90;;;;;;5040065;28;20075;-59
2022/06/19 04:11:00;;;;;;;13.02;2.10;;;13.70;99.90;;;;;;5038506;28;20045;-60
2022/06/19 04:13:25;;;;;;;13.02;2.42;;;13.70;99.90;;;;;;5040047;28;20046;-60
2022/06/19 04:15:51;;;;;;;15.48;2.50;;;13.70;99.90;;;;;;5038570;28;20119;-59
2022/06/19 04:18:17;;;;;;;17.88;3.83;;;13.60;99.90;;;;;;5039662;28;20507;-59
2022/06/19 04:20:42;;;;;;;14.43;3.17;;;13.70;99.90;;;;;;5039120;28;20037;-58
2022/06/19 04:23:09;;;;;;;16.85;2.88;;;13.60;99.90;;;;;;5021685;28;20050;-58
2022/06/19 04:25:35;;;;;;;16.70;2.88;;;13.50;99.90;;;;;;5019630;28;20089;-59
2022/06/19 04:28:01;;;;;;;17.85;3.08;;;13.40;99.90;;;;;;5018555;28;20034;-59
2022/06/19 04:30:27;;;;;;;18.10;3.22;;;13.50;99.90;;;;;;5019910;28;20056;-59
2022/06/19 04:32:52;;;;;;;15.38;3.65;;;13.40;99.90;;;;;;5018543;28;20042;-58
2022/06/19 04:35:18;;;;;;;14.95;3.05;;;13.20;99.90;;;;;;5019754;28;20097;-59
2022/06/19 04:37:44;;;;;;;14.70;2.95;;;13.20;99.90;;;;;;5019017;28;20065;-60
2022/06/19 04:40:12;;;;;;;13.82;3.05;;;13.00;99.90;;;;;;5017688;28;20403;-60
2022/06/19 04:42:37;;;;;;;15.90;2.40;;;13.00;99.90;;;;;;5019502;28;20066;-59
2022/06/19 04:45:03;;;;;;;17.73;3.00;;;12.90;99.90;;;;;;5018032;28;20137;-59
2022/06/19 04:47:29;;;;;;;15.82;3.25;;;13.00;99.90;;;;;;5019359;28;20046;-58
2022/06/19 04:49:55;;;;;;;13.75;2.60;;;13.00;99.90;;;;;;5018521;28;20094;-59
2022/06/19 04:52:20;;;;;;;19.33;2.80;;;13.10;99.90;;;;;;5019489;28;20050;-59
2022/06/19 04:54:46;;;;;;;14.30;2.72;;;13.00;99.90;;;;;;5017330;28;20050;-58
2022/06/19 04:57:12;;;;;;;15.85;3.10;;;13.20;99.90;;;;;;5018836;28;20046;-58
2022/06/19 04:59:38;;;;;;;13.32;2.42;;;13.20;99.90;;;;;;5019276;28;20056;-55
2022/06/19 05:02:04;;;;;;;16.02;2.80;;;13.10;99.90;;;;;;5016952;28;20160;-58
2022/06/19 05:04:30;;;;;;;12.85;2.20;;;13.20;99.90;;;;;;5019377;28;20066;-59
2022/06/19 05:06:56;;;;;;;12.35;2.17;;;13.30;99.90;;;;;;5017934;28;20103;-58
2022/06/19 05:09:21;;;;;;;17.77;2.85;;;13.10;99.90;;;;;;5019581;28;20038;-58
2022/06/19 05:11:47;;;;;;;18.60;3.38;;;13.10;99.90;;;;;;5018339;28;20046;-58
2022/06/19 05:14:13;;;;;;;14.40;3.70;;;13.30;99.90;;;;;;5018718;28;20042;-58
2022/06/19 05:16:39;;;;;;;14.90;2.63;;;13.20;99.90;;;;;;5019171;28;20402;-58
2022/06/19 05:19:05;;;;;;;15.45;2.30;;;13.10;99.90;;;;;;5018185;28;20050;-59
2022/06/19 05:21:32;;;;;;;20.02;3.83;;;13.20;99.90;;;;;;5021727;28;20084;-59
2022/06/19 05:23:58;;;;;;;17.92;2.70;;;13.00;99.90;;;;;;5036098;28;20045;-58
2022/06/19 05:26:34;;;;;;;16.67;2.83;;;13.00;99.90;;;;;;5037851;28;20045;-58
2022/06/19 05:29:01;;;;;;;17.08;2.20;;;12.80;99.90;;;;;;5038138;28;20502;-58
2022/06/19 05:31:28;;;;;;;14.80;2.25;;;12.90;99.90;;;;;;5038284;28;20583;-58
2022/06/19 05:33:54;;;;;;;12.68;1.92;;;13.00;99.90;;;;;;5037626;28;20100;-58
2022/06/19 05:36:21;;;;;;;17.42;2.30;;;13.00;99.90;;;;;;5036540;28;20076;-60
2022/06/19 05:38:47;;;;;;;14.43;2.72;;;13.10;99.90;;;;;;5037711;28;20056;-58
2022/06/19 05:41:13;;;;;;;14.57;2.50;;;13.10;99.90;;;;;;5037655;28;20096;-58
2022/06/19 05:43:38;;;;;;;16.88;2.33;;;13.10;99.90;;;;;;5038608;28;20053;-59
2022/06/19 05:46:14;;;;;;;17.35;2.72;;;13.00;99.90;;;;;;5037932;28;20044;-59
2022/06/19 05:48:40;;;;;;;17.80;2.42;;;12.90;99.90;;;;;;5038025;28;20076;-59
2022/06/19 05:51:13;;;;;;;12.55;2.20;;;13.10;99.90;;;;;;5037502;28;20045;-59
2022/06/19 05:53:42;;;;;;;13.70;2.38;;;13.10;99.90;;;;;;5037265;28;20104;-59
2022/06/19 05:56:08;;;;;;;10.93;2.53;;;13.10;99.90;;;;;;5038990;28;20045;-60
2022/06/19 05:58:35;;;;;;;14.85;2.20;;;13.10;99.90;;;;;;5037283;28;20788;-59
2022/06/19 06:01:02;;;;;;;10.20;1.90;;;13.20;99.90;;;;;;5041428;28;20053;-55
2022/06/19 06:03:28;;;;;;;15.20;2.78;;;13.20;99.90;;;;;;5039823;28;20053;-58
2022/06/19 06:06:03;;;;;;;11.35;1.92;;;13.20;99.90;;;;;;5041360;28;20048;-58
2022/06/19 06:08:29;;;;;;;11.00;2.20;;;13.20;99.90;;;;;;5042155;28;20041;-59
2022/06/19 06:10:55;;;;;;;10.05;2.42;;;13.20;99.90;;;;;;5040914;28;20037;-58
2022/06/19 06:13:21;;;;;;;9.95;2.08;;;13.20;99.90;;;;;;5042067;28;20048;-59
2022/06/19 06:15:48;;;;;;;11.00;2.75;;;13.20;99.90;;;;;;5040741;28;20050;-59
2022/06/19 06:18:15;;;;;;;13.85;2.00;;;13.30;99.90;;;;;;5041733;28;20055;-59
2022/06/19 06:20:41;;;;;;;12.48;2.08;;;13.20;99.90;;;;;;5041309;28;20080;-59
2022/06/19 06:23:07;;;;;;;13.13;2.00;;;13.20;99.90;;;;;;5024035;28;20042;-59
2022/06/19 06:25:34;;;;;;;10.35;2.30;;;13.30;99.90;;;;;;5022010;28;20046;-58
2022/06/19 06:28:00;;;;;;;18.90;2.15;;;13.30;99.90;;;;;;5020799;28;20109;-59
2022/06/19 06:30:26;;;;;;;14.45;2.38;;;13.40;99.90;;;;;;5022130;28;20041;-57
2022/06/19 06:32:52;;;;;;;9.60;1.85;;;13.50;99.90;;;;;;5020563;28;20077;-58
2022/06/19 06:35:17;;;;;;;15.30;2.75;;;13.50;99.90;;;;;;5021832;28;20034;-60
2022/06/19 06:37:43;;;;;;;9.15;2.15;;;13.60;99.90;;;;;;5021112;28;20096;-59
2022/06/19 06:40:10;;;;;;;9.95;2.08;;;13.60;99.90;;;;;;5021074;28;20069;-59
2022/06/19 06:42:36;;;;;;;8.70;1.92;;;13.60;99.90;;;;;;5021536;28;20598;-59
2022/06/19 06:45:03;;;;;;;12.88;2.20;;;13.60;99.90;;;;;;5018859;28;20065;-59
2022/06/19 06:47:29;;;;;;;11.02;1.95;;;13.70;99.90;;;;;;5021803;28;20102;-59
2022/06/19 06:49:55;;;;;;;9.82;1.60;;;13.80;99.90;;;;;;5020174;28;20085;-59
2022/06/19 06:52:20;;;;;;;8.65;2.08;;;13.80;99.90;;;;;;5021547;28;20080;-59
2022/06/19 06:54:46;;;;;;;17.13;3.00;;;13.80;99.90;;;;;;5020590;28;20050;-58
2022/06/19 06:57:12;;;;;;;11.32;1.90;;;13.90;99.90;;;;;;5019500;28;20043;-59
2022/06/19 06:59:37;;;;;;;12.07;1.83;;;13.90;99.90;;;;;;5021435;28;20088;-59
2022/06/19 07:02:05;;;;;;;14.35;2.70;;;13.90;99.90;;;;;;5019944;28;20157;-58
2022/06/19 07:04:31;;;;;;;10.98;2.25;;;14.00;99.90;;;;;;5021207;28;20065;-58
2022/06/19 07:06:57;;;;;;;12.10;2.08;;;14.00;99.90;;;;;;5019924;28;20046;-59
2022/06/19 07:09:22;;;;;;;14.25;2.30;;;14.00;99.90;;;;;;5021205;28;20108;-59
2022/06/19 07:11:49;;;;;;;13.48;1.92;;;13.80;99.90;;;;;;5019715;28;20033;-59
2022/06/19 07:14:17;;;;;;;12.60;2.17;;;13.70;99.90;;;;;;5020308;28;20046;-60
2022/06/19 07:16:43;;;;;;;10.13;2.03;;;13.80;99.90;;;;;;5020978;28;20033;-59
2022/06/19 07:19:10;;;;;;;9.65;1.80;;;13.80;99.90;;;;;;5019460;28;20061;-59
2022/06/19 07:21:36;;;;;;;12.27;2.72;;;14.00;99.90;;;;;;5025702;28;20037;-59
2022/06/19 07:24:02;;;;;;;14.68;2.45;;;14.10;99.90;;;;;;5039087;28;20067;-59
2022/06/19 07:26:29;;;;;;;9.45;1.65;;;14.00;99.90;;;;;;5040689;28;20050;-57
2022/06/19 07:28:55;;;;;;;11.98;2.05;;;14.00;99.90;;;;;;5039585;28;20052;-59
2022/06/19 07:31:21;;;;;;;13.15;2.30;;;13.90;99.90;;;;;;5039754;28;20041;-59
2022/06/19 07:33:47;;;;;;;12.05;2.10;;;13.90;99.90;;;;;;5040069;28;20056;-59
2022/06/19 07:36:23;;;;;;;14.50;2.10;;;13.90;99.90;;;;;;5039034;28;20041;-58
2022/06/19 07:38:49;;;;;;;11.45;1.80;;;14.00;99.90;;;;;;5040450;28;20037;-58
2022/06/19 07:41:14;;;;;;;11.48;1.88;;;14.00;99.90;;;;;;5039035;28;20105;-59
2022/06/19 07:43:40;;;;;;;11.88;1.90;;;14.00;99.90;;;;;;5040013;28;20053;-61
2022/06/19 07:46:06;;;;;;;9.38;1.70;;;13.90;99.90;;;;;;5039190;28;20057;-58
2022/06/19 07:51:16;;;;;;;11.05;2.20;;;14.00;99.90;;;;;;5040192;28;20208;-58
2022/06/19 07:53:42;;;;;;;13.57;2.13;;;14.10;99.90;;;;;;5038582;28;20037;-59
2022/06/19 07:56:08;;;;;;;10.98;1.80;;;14.00;99.90;;;;;;5040282;28;20080;-59
2022/06/19 07:58:35;;;;;;;11.00;1.58;;;13.90;99.90;;;;;;5038501;28;20045;-59
2022/06/19 08:01:01;;;;;;;11.93;1.90;;;13.90;99.90;;;;;;5039514;28;20088;-59
2022/06/19 08:03:27;;;;;;;10.43;2.03;;;13.90;99.90;;;;;;5038920;28;20114;-59
2022/06/19 08:05:53;;;;;;;10.63;1.65;;;13.90;99.90;;;;;;5039169;28;20624;-60
2022/06/19 08:08:22;;;;;;;12.60;2.08;;;13.90;99.90;;;;;;5039951;28;20045;-60
2022/06/19 08:10:50;;;;;;;8.40;1.63;;;13.80;99.90;;;;;;5038509;28;20398;-60
2022/06/19 08:13:20;;;;;;;10.95;1.80;;;13.70;99.90;;;;;;5038448;28;20052;-59
2022/06/19 08:15:56;;;;;;;8.05;2.13;;;13.90;99.90;;;;;;5038368;28;20049;-60
2022/06/19 08:18:23;;;;;;;8.32;1.60;;;13.90;99.90;;;;;;5039417;28;20045;-60
2022/06/19 08:20:48;;;;;;;9.63;1.85;;;13.90;99.90;;;;;;5037812;28;20052;-60
2022/06/19 08:23:14;;;;;;;15.30;2.22;;;13.80;99.90;;;;;;5018624;28;20118;-59
2022/06/19 08:25:40;;;;;;;8.15;2.05;;;13.80;99.90;;;;;;5019894;28;20046;-59
2022/06/19 08:28:07;;;;;;;10.50;1.63;;;14.00;99.90;;;;;;5018658;28;20038;-59
2022/06/19 08:30:36;;;;;;;12.15;1.98;;;14.10;99.90;;;;;;5019867;28;20049;-59
2022/06/19 08:33:03;;;;;;;8.63;2.03;;;14.20;99.90;;;;;;5018770;28;20038;-58
2022/06/19 08:35:31;;;;;;;9.30;1.50;;;14.30;99.90;;;;;;5019328;28;20056;-59
2022/06/19 08:38:03;;;;;;;11.65;2.17;;;14.30;99.90;;;;;;5019561;28;20053;-59
2022/06/19 08:40:28;;;;;;;;;;;14.30;99.90;;;;;;5018878;28;20049;-59
2022/06/19 08:42:57;;;;;;;9.27;1.20;;;14.30;99.90;;;;;;5019777;28;19999;-59
2022/06/19 08:45:57;;;;;;;11.73;1.83;;;14.30;99.90;;;;;;5017892;28;20061;-59
2022/06/19 08:48:28;;;;;;;8.82;1.58;;;14.20;99.90;;;;;;5016025;28;20081;-59
2022/06/19 08:51:37;;;;;;;8.23;1.50;;;14.10;99.90;;;;;;5018976;28;20041;-58
2022/06/19 08:54:26;;;;;;;8.57;1.50;;;14.20;99.90;;;;;;5018136;28;20050;-59
2022/06/19 08:57:10;;;;;;;6.82;1.42;;;14.20;99.90;;;;;;5011035;28;20064;-59
2022/06/19 08:59:54;;;;;;;5.25;1.10;;;14.20;99.90;;;;;;5019487;28;20080;-59
2022/06/19 09:02:41;;;;;;;7.43;1.35;;;14.10;99.90;;;;;;5018089;28;20046;-58
2022/06/19 09:05:45;;;;;;;6.68;1.08;;;14.30;99.90;;;;;;5019215;28;20058;-59
2022/06/19 09:08:41;;;;;;;7.65;1.58;;;14.40;99.90;;;;;;5018048;28;20612;-58
2022/06/19 09:11:07;;;;;;;7.18;1.27;;;14.50;99.90;;;;;;5017972;28;20045;-59
2022/06/19 09:14:01;;;;;;;6.57;1.27;;;14.50;99.90;;;;;;5019266;28;20042;-59
2022/06/19 09:16:43;;;;;;;6.53;1.17;;;14.50;99.90;;;;;;5018843;28;20050;-58
2022/06/19 09:19:48;;;;;;;6.07;1.48;;;14.70;99.90;;;;;;5017969;28;20516;-59
2022/06/19 09:22:36;;;;;;;5.85;1.15;;;14.60;99.90;;;;;;5028871;28;20098;-59
2022/06/19 09:25:30;;;;;;;6.90;1.23;;;14.70;99.90;;;;;;5038578;28;20053;-59
2022/06/19 09:28:09;;;;;;;6.85;1.20;;;14.60;99.90;;;;;;5037811;28;20045;-59
2022/06/19 09:30:49;;;;;;;6.47;1.40;;;15.10;99.90;;;;;;5038949;28;20042;-59
2022/06/19 09:33:23;;;;;;;7.97;1.20;;;15.30;99.90;;;;;;5038222;28;20045;-58
2022/06/19 09:36:05;;;;;;;7.93;1.60;;;15.30;99.90;;;;;;5041806;28;20061;-59
2022/06/19 09:38:34;;;;;;;7.80;1.42;;;15.50;99.90;;;;;;5042737;28;20041;-58
2022/06/19 09:41:05;;;;;;;12.27;1.67;;;15.50;99.90;;;;;;5039822;28;20041;-59
2022/06/19 09:43:39;;;;;;;7.85;1.23;;;15.50;99.90;;;;;;5042408;28;20041;-59
2022/06/19 09:46:11;;;;;;;5.55;1.20;;;15.30;99.90;;;;;;5041535;28;20528;-58
2022/06/19 09:48:59;;;;;;;9.88;1.55;;;15.70;99.90;;;;;;5041685;28;20056;-59
2022/06/19 09:51:52;;;;;;;6.45;1.30;;;15.70;99.90;;;;;;5042464;28;20041;-60
2022/06/19 09:54:34;;;;;;;6.88;1.33;;;15.80;99.90;;;;;;5041210;28;20053;-60
2022/06/19 09:57:20;;;;;;;7.00;1.25;;;15.80;99.90;;;;;;5041750;28;20049;-60
2022/06/19 10:00:00;;;;;;;8.82;1.63;;;16.10;99.90;;;;;;5042384;28;20042;-61
2022/06/19 10:02:55;;;;;;;6.90;1.45;;;15.90;99.90;;;;;;5040849;28;20049;-60
2022/06/19 10:05:48;;;;;;;5.43;1.63;;;15.90;99.90;;;;;;5040503;28;20063;-60
2022/06/19 10:08:26;;;;;;;6.38;1.33;;;15.70;99.90;;;;;;5042290;28;20054;-58
2022/06/19 10:10:58;;;;;;;6.10;1.20;;;15.60;99.90;;;;;;5040574;28;20049;-59
2022/06/19 10:14:17;;;;;;;5.72;1.20;;;15.60;99.90;;;;;;5042270;28;20402;-59
2022/06/19 10:17:09;;;;;;;6.50;1.00;;;15.70;99.90;;;;;;5019325;28;20049;-58
2022/06/19 10:19:41;;;;;;;3.65;1.02;;;15.90;99.90;;;;;;5040636;28;20053;-59
2022/06/19 10:22:25;;;;;;;4.18;1.30;;;16.20;99.90;;;;;;5033155;28;20050;-59
2022/06/19 10:25:12;;;;;;;8.20;1.45;;;16.40;99.90;;;;;;5021339;28;20056;-58
2022/06/19 10:28:15;;;;;;;5.15;1.08;;;15.80;99.90;;;;;;5020696;28;20053;-59
2022/06/19 10:30:59;;;;;;;6.40;1.10;;;16.10;99.90;;;;;;5021734;28;20085;-59
2022/06/19 10:33:47;;;;;;;8.20;1.27;;;15.90;99.90;;;;;;5021330;28;20074;-59
2022/06/19 10:36:28;;;;;;;6.10;1.17;;;16.00;99.90;;;;;;5020578;28;20045;-60
2022/06/19 10:38:54;;;;;;;8.48;1.45;;;16.10;99.90;;;;;;5022081;28;20050;-58
2022/06/19 10:42:23;;;;;;;5.72;1.30;;;16.20;99.90;;;;;;5020334;28;20049;-59
2022/06/19 10:44:56;;;;;;;3.65;0.93;;;16.20;99.90;;;;;;5011362;28;20057;-58
2022/06/19 10:47:39;;;;;;;8.13;1.90;;;16.50;99.90;;;;;;5020063;28;20046;-59
2022/06/19 10:50:41;;;;;;;5.00;1.52;;;16.60;99.90;;;;;;5020438;28;20041;-59
2022/06/19 10:53:18;;;;;;;4.28;1.00;;;16.30;99.90;;;;;;5020261;28;20506;-59
2022/06/19 10:56:04;;;;;;;4.00;1.25;;;15.80;99.90;;;;;;5021476;28;20038;-59
2022/06/19 10:58:31;;;;;;;6.07;1.17;;;15.80;99.90;;;;;;5019972;28;20049;-59
2022/06/19 11:00:59;;;;;;;6.82;1.10;;;15.80;99.90;;;;;;5021323;28;20560;-59
2022/06/19 11:07:01;;;;;;;5.00;0.95;;;15.60;99.90;;;;;;5020063;28;20056;-59
2022/06/19 11:09:40;;;;;;;7.38;1.10;;;15.50;99.90;;;;;;5021142;28;20118;-59
2022/06/19 11:12:15;;;;;;;7.07;1.23;;;15.60;99.90;;;;;;5020499;28;20953;-59
2022/06/19 11:14:49;;;;;;;4.47;1.25;;;15.70;99.90;;;;;;5019634;28;20065;-59
2022/06/19 11:17:28;;;;;;;7.95;1.25;;;15.50;99.90;;;;;;5021328;28;20038;-58
2022/06/19 11:19:53;;;;;;;9.95;1.50;;;15.40;99.90;;;;;;5019790;28;20476;-59
2022/06/19 11:22:25;;;;;;;7.70;1.27;;;15.30;99.90;;;;;;5031186;28;20050;-58
2022/06/19 11:24:52;;;;;;;5.50;1.40;;;15.20;99.90;;;;;;5039856;28;20048;-58
2022/06/19 11:27:24;;;;;;;5.97;1.17;;;15.30;99.90;;;;;;5039691;28;20041;-58
2022/06/19 11:29:53;;;;;;;6.22;1.65;;;15.30;99.90;;;;;;5040815;28;20097;-59
2022/06/19 11:32:22;;;;;;;5.90;1.40;;;15.20;99.90;;;;;;5039075;28;20038;-59
2022/06/19 11:34:58;;;;;;;8.48;1.52;;;15.10;99.90;;;;;;5040699;28;20053;-58
2022/06/19 11:37:37;;;;;;;8.85;1.70;;;15.20;99.90;;;;;;5039359;28;20049;-58
2022/06/19 11:40:05;;;;;;;6.03;1.10;;;15.20;99.90;;;;;;5039642;28;20081;-59
2022/06/19 11:42:47;;;;;;;6.63;1.40;;;15.10;99.90;;;;;;5040261;28;20073;-58
2022/06/19 11:45:15;;;;;;;7.97;1.53;;;15.30;99.90;;;;;;5038848;28;20049;-59
2022/06/19 11:47:54;;;;;;;8.23;1.50;;;15.30;99.90;;;;;;5040384;28;20091;-59
2022/06/19 11:50:32;;;;;;;9.93;1.70;;;15.50;99.90;;;;;;5039475;28;20071;-59
2022/06/19 11:53:09;;;;;;;8.20;2.10;;;15.30;99.90;;;;;;5039395;28;20045;-59
2022/06/19 11:55:46;;;;;;;7.65;1.70;;;15.40;99.90;;;;;;5040481;28;20131;-58
2022/06/19 11:58:26;;;;;;;8.07;1.45;;;15.30;99.90;;;;;;5038791;28;20095;-59
2022/06/19 12:01:09;;;;;;;6.40;1.30;;;15.50;99.90;;;;;;5040009;28;20046;-59
2022/06/19 12:03:43;;;;;;;9.75;1.58;;;15.40;99.90;;;;;;5039249;28;20046;-57
2022/06/19 12:06:11;;;;;;;7.68;1.48;;;15.30;99.90;;;;;;5038669;28;20061;-59
2022/06/19 12:09:01;;;;;;;8.15;1.65;;;15.50;99.90;;;;;;5039982;28;20064;-59
2022/06/19 12:11:43;;;;;;;10.13;1.50;;;15.40;99.90;;;;;;5033439;28;20095;-58
2022/06/19 12:14:11;;;;;;;6.47;1.23;;;15.50;99.90;;;;;;5038930;28;20071;-58
2022/06/19 12:16:38;;;;;;;8.90;1.60;;;15.70;99.90;;;;;;5039770;28;20077;-59
2022/06/19 12:19:28;;;;;;;7.50;1.60;;;15.80;99.90;;;;;;5038153;28;20549;-59
2022/06/19 12:22:01;;;;;;;7.00;1.20;;;15.90;99.90;;;;;;5032414;28;20121;-59
2022/06/19 12:24:53;;;;;;;11.93;1.83;;;16.00;99.90;;;;;;5018632;28;20084;-59
2022/06/19 12:27:22;;;;;;;5.22;1.17;;;16.10;99.90;;;;;;5018573;28;20077;-59
2022/06/19 12:29:58;;;;;;;7.20;1.45;;;16.20;99.90;;;;;;5019685;28;20056;-59
2022/06/19 12:32:35;;;;;;;8.65;1.30;;;16.30;99.90;;;;;;5018613;28;20041;-59
2022/06/19 12:35:12;;;;;;;5.43;1.50;;;16.30;99.90;;;;;;5019648;28;20050;-59
2022/06/19 12:37:37;;;;;;;5.68;1.30;;;16.40;99.90;;;;;;5019265;28;20041;-59
2022/06/19 12:40:06;;;;;;;5.45;1.10;;;16.50;99.90;;;;;;5018848;28;20053;-59
2022/06/19 12:43:30;;;;;;;5.97;1.23;;;16.50;99.90;;;;;;5019960;28;20042;-60
2022/06/19 12:45:58;;;;;;;8.10;1.50;;;16.80;99.90;;;;;;4988369;28;20493;-60
2022/06/19 12:48:26;;;;;;;6.90;1.60;;;17.10;99.90;;;;;;5018894;28;20169;-59
2022/06/19 12:50:57;;;;;;;8.40;1.52;;;17.20;99.90;;;;;;5019448;28;20387;-59
2022/06/19 12:54:00;;;;;;;7.57;1.40;;;17.20;99.90;;;;;;5018312;28;20049;-60
2022/06/19 12:56:41;;;;;;;7.63;1.50;;;17.10;99.90;;;;;;5019517;28;20060;-59
2022/06/19 12:59:21;;;;;;;7.45;1.48;;;17.30;99.90;;;;;;5018978;28;20053;-59
2022/06/19 13:02:07;;;;;;;7.10;1.60;;;16.60;99.90;;;;;;5018429;28;20053;-60
2022/06/19 13:05:15;;;;;;;6.57;1.55;;;16.90;99.90;;;;;;5019517;28;20058;-59
2022/06/19 13:08:16;;;;;;;9.65;2.35;;;17.10;99.90;;;;;;5018949;28;20050;-60
2022/06/19 13:10:51;;;;;;;7.00;1.40;;;17.30;99.90;;;;;;5020715;28;20058;-61
2022/06/19 13:13:42;;;;;;;6.63;1.30;;;17.30;99.90;;;;;;5023530;28;20041;-59